sensor_id;sensor_type;location;lat;lon;timestamp;pressure;altitude;pressure_sealevel;temperature
20848;BMP180;10584;50.854;12.902;2022-07-29T00:01:22;98266.00;;;14.00
20848;BMP180;10584;50.854;12.902;2022-07-29T00:06:25;98260.00;;;14.00
20848;BMP180;10584;50.854;12.902;2022-07-29T00:11:28;98257.00;;;13.90
20848;BMP180;10584;50.854;12.902;2022-07-29T00:16:31;98246.00;;;13.90
20848;BMP180;10584;50.854;12.902;2022-07-29T00:21:37;98241.00;;;13.90
20848;BMP180;10584;50.854;12.902;2022-07-29T00:26:39;98223.00;;;13.80
20848;BMP180;10584;50.854;12.902;2022-07-29T00:31:42;98212.00;;;13.80
20848;BMP180;10584;50.854;12.902;2022-07-29T00:36:45;98208.00;;;13.80
20848;BMP180;10584;50.854;12.902;2022-07-29T00:41:48;98193.00;;;13.80
20848;BMP180;10584;50.854;12.902;2022-07-29T00:46:51;98195.00;;;13.80
20848;BMP180;10584;50.854;12.902;2022-07-29T00:51:54;98198.00;;;13.80
20848;BMP180;10584;50.854;12.902;2022-07-29T00:57:00;98189.00;;;13.80
20848;BMP180;10584;50.854;12.902;2022-07-29T01:02:03;98192.00;;;13.80
20848;BMP180;10584;50.854;12.902;2022-07-29T01:07:07;98188.00;;;13.70
20848;BMP180;10584;50.854;12.902;2022-07-29T01:12:11;98186.00;;;13.70
20848;BMP180;10584;50.854;12.902;2022-07-29T01:34:03;98182.00;;;13.70
20848;BMP180;10584;50.854;12.902;2022-07-29T01:39:19;98178.00;;;13.80
20848;BMP180;10584;50.854;12.902;2022-07-29T01:44:41;98173.00;;;13.80
20848;BMP180;10584;50.854;12.902;2022-07-29T07:48:35;98154.00;;;19.90
20848;BMP180;10584;50.854;12.902;2022-07-29T07:53:57;98157.00;;;20.10
20848;BMP180;10584;50.854;12.902;2022-07-29T08:14:46;98156.00;;;20.90
20848;BMP180;10584;50.854;12.902;2022-07-29T08:20:08;98159.00;;;21.30
20848;BMP180;10584;50.854;12.902;2022-07-29T08:25:11;98150.00;;;21.60
20848;BMP180;10584;50.854;12.902;2022-07-29T08:30:18;98143.00;;;21.90
20848;BMP180;10584;50.854;12.902;2022-07-29T08:35:22;98137.00;;;22.40
20848;BMP180;10584;50.854;12.902;2022-07-29T08:40:26;98142.00;;;22.80
20848;BMP180;10584;50.854;12.902;2022-07-29T08:45:50;98150.00;;;23.40
20848;BMP180;10584;50.854;12.902;2022-07-29T08:50:56;98143.00;;;23.70
20848;BMP180;10584;50.854;12.902;2022-07-29T08:55:59;98142.00;;;24.00
20848;BMP180;10584;50.854;12.902;2022-07-29T09:01:06;98148.00;;;24.50
20848;BMP180;10584;50.854;12.902;2022-07-29T09:06:15;98141.00;;;24.80
20848;BMP180;10584;50.854;12.902;2022-07-29T09:11:19;98153.00;;;25.10
20848;BMP180;10584;50.854;12.902;2022-07-29T09:16:22;98136.00;;;25.40
20848;BMP180;10584;50.854;12.902;2022-07-29T09:21:45;98141.00;;;25.60
20848;BMP180;10584;50.854;12.902;2022-07-29T09:27:22;98146.00;;;26.00
20848;BMP180;10584;50.854;12.902;2022-07-29T09:32:25;98143.00;;;26.10
20848;BMP180;10584;50.854;12.902;2022-07-29T09:37:29;98145.00;;;26.10
20848;BMP180;10584;50.854;12.902;2022-07-29T09:42:32;98136.00;;;26.30
20848;BMP180;10584;50.854;12.902;2022-07-29T09:47:44;98126.00;;;26.70
20848;BMP180;10584;50.854;12.902;2022-07-29T09:52:52;98119.00;;;27.20
20848;BMP180;10584;50.854;12.902;2022-07-29T09:58:18;98108.00;;;27.30
20848;BMP180;10584;50.854;12.902;2022-07-29T10:03:21;98107.00;;;27.70
20848;BMP180;10584;50.854;12.902;2022-07-29T10:08:27;98106.00;;;27.70
20848;BMP180;10584;50.854;12.902;2022-07-29T10:13:30;98114.00;;;27.90
20848;BMP180;10584;50.854;12.902;2022-07-29T10:18:33;98108.00;;;27.80
20848;BMP180;10584;50.854;12.902;2022-07-29T10:23:37;98115.00;;;27.40
20848;BMP180;10584;50.854;12.902;2022-07-29T10:28:47;98095.00;;;27.30
20848;BMP180;10584;50.854;12.902;2022-07-29T10:34:21;98100.00;;;27.80
20848;BMP180;10584;50.854;12.902;2022-07-29T10:45:02;98098.00;;;28.00
20848;BMP180;10584;50.854;12.902;2022-07-29T10:50:08;98090.00;;;28.00
20848;BMP180;10584;50.854;12.902;2022-07-29T10:55:39;98087.00;;;28.50
20848;BMP180;10584;50.854;12.902;2022-07-29T11:00:51;98092.00;;;28.20
20848;BMP180;10584;50.854;12.902;2022-07-29T11:05:55;98086.00;;;28.20
20848;BMP180;10584;50.854;12.902;2022-07-29T11:16:23;98079.00;;;28.90
20848;BMP180;10584;50.854;12.902;2022-07-29T11:21:36;98082.00;;;28.60
20848;BMP180;10584;50.854;12.902;2022-07-29T11:27:16;98074.00;;;28.90
20848;BMP180;10584;50.854;12.902;2022-07-29T11:32:24;98076.00;;;29.00
20848;BMP180;10584;50.854;12.902;2022-07-29T11:37:31;98064.00;;;29.00
20848;BMP180;10584;50.854;12.902;2022-07-29T11:42:44;98065.00;;;29.20
20848;BMP180;10584;50.854;12.902;2022-07-29T11:47:52;98061.00;;;29.50
20848;BMP180;10584;50.854;12.902;2022-07-29T11:52:55;98058.00;;;29.70
20848;BMP180;10584;50.854;12.902;2022-07-29T11:58:00;98065.00;;;29.70
20848;BMP180;10584;50.854;12.902;2022-07-29T12:03:10;98067.00;;;29.70
20848;BMP180;10584;50.854;12.902;2022-07-29T12:08:16;98062.00;;;29.50
20848;BMP180;10584;50.854;12.902;2022-07-29T12:13:21;98054.00;;;29.10
20848;BMP180;10584;50.854;12.902;2022-07-29T12:18:39;98047.00;;;29.20
20848;BMP180;10584;50.854;12.902;2022-07-29T12:23:53;98044.00;;;29.20
20848;BMP180;10584;50.854;12.902;2022-07-29T12:29:06;98033.00;;;29.20
20848;BMP180;10584;50.854;12.902;2022-07-29T12:34:23;98036.00;;;29.70
20848;BMP180;10584;50.854;12.902;2022-07-29T12:39:27;98040.00;;;29.90
20848;BMP180;10584;50.854;12.902;2022-07-29T12:44:47;98042.00;;;29.40
20848;BMP180;10584;50.854;12.902;2022-07-29T12:49:51;98031.00;;;29.40
20848;BMP180;10584;50.854;12.902;2022-07-29T12:55:09;98022.00;;;29.50
20848;BMP180;10584;50.854;12.902;2022-07-29T13:00:13;98039.00;;;29.60
20848;BMP180;10584;50.854;12.902;2022-07-29T13:05:17;98035.00;;;29.60
20848;BMP180;10584;50.854;12.902;2022-07-29T13:10:21;98032.00;;;29.20
20848;BMP180;10584;50.854;12.902;2022-07-29T13:15:25;98042.00;;;28.90
20848;BMP180;10584;50.854;12.902;2022-07-29T13:20:30;98038.00;;;28.70
20848;BMP180;10584;50.854;12.902;2022-07-29T13:25:33;98049.00;;;28.60
20848;BMP180;10584;50.854;12.902;2022-07-29T13:30:37;98044.00;;;28.10
20848;BMP180;10584;50.854;12.902;2022-07-29T13:35:46;98041.00;;;28.00
20848;BMP180;10584;50.854;12.902;2022-07-29T13:40:49;98039.00;;;27.80
20848;BMP180;10584;50.854;12.902;2022-07-29T13:45:53;98031.00;;;27.80
20848;BMP180;10584;50.854;12.902;2022-07-29T13:50:57;98035.00;;;27.70
20848;BMP180;10584;50.854;12.902;2022-07-29T13:56:00;98041.00;;;27.60
20848;BMP180;10584;50.854;12.902;2022-07-29T14:01:02;98053.00;;;26.70
20848;BMP180;10584;50.854;12.902;2022-07-29T14:06:05;98045.00;;;26.50
20848;BMP180;10584;50.854;12.902;2022-07-29T14:11:08;98048.00;;;25.90
20848;BMP180;10584;50.854;12.902;2022-07-29T14:16:11;98052.00;;;25.50
20848;BMP180;10584;50.854;12.902;2022-07-29T14:21:14;98051.00;;;25.50
20848;BMP180;10584;50.854;12.902;2022-07-29T14:26:17;98055.00;;;25.30
20848;BMP180;10584;50.854;12.902;2022-07-29T14:31:25;98060.00;;;25.60
20848;BMP180;10584;50.854;12.902;2022-07-29T14:36:28;98065.00;;;25.50
20848;BMP180;10584;50.854;12.902;2022-07-29T14:41:31;98071.00;;;25.50
20848;BMP180;10584;50.854;12.902;2022-07-29T14:46:34;98066.00;;;25.40
20848;BMP180;10584;50.854;12.902;2022-07-29T14:51:37;98065.00;;;25.40
20848;BMP180;10584;50.854;12.902;2022-07-29T14:56:41;98075.00;;;25.20
20848;BMP180;10584;50.854;12.902;2022-07-29T15:01:48;98105.00;;;24.30
20848;BMP180;10584;50.854;12.902;2022-07-29T15:06:52;98122.00;;;23.10
20848;BMP180;10584;50.854;12.902;2022-07-29T15:11:55;98118.00;;;22.10
20848;BMP180;10584;50.854;12.902;2022-07-29T15:16:58;98122.00;;;21.50
20848;BMP180;10584;50.854;12.902;2022-07-29T15:22:01;98107.00;;;21.70
20848;BMP180;10584;50.854;12.902;2022-07-29T15:27:05;98102.00;;;21.20
20848;BMP180;10584;50.854;12.902;2022-07-29T15:32:08;98086.00;;;21.00
20848;BMP180;10584;50.854;12.902;2022-07-29T15:37:14;98081.00;;;20.80
20848;BMP180;10584;50.854;12.902;2022-07-29T15:42:16;98058.00;;;20.90
20848;BMP180;10584;50.854;12.902;2022-07-29T15:47:19;98053.00;;;20.80
20848;BMP180;10584;50.854;12.902;2022-07-29T15:52:22;98048.00;;;20.90
20848;BMP180;10584;50.854;12.902;2022-07-29T15:57:27;98047.00;;;21.00
20848;BMP180;10584;50.854;12.902;2022-07-29T16:02:30;98044.00;;;20.90
20848;BMP180;10584;50.854;12.902;2022-07-29T16:07:33;98026.00;;;21.00
20848;BMP180;10584;50.854;12.902;2022-07-29T16:12:36;98028.00;;;21.00
20848;BMP180;10584;50.854;12.902;2022-07-29T16:17:38;98018.00;;;20.90
20848;BMP180;10584;50.854;12.902;2022-07-29T16:22:42;97997.00;;;21.00
20848;BMP180;10584;50.854;12.902;2022-07-29T16:27:45;97994.00;;;21.10
20848;BMP180;10584;50.854;12.902;2022-07-29T16:32:47;97985.00;;;21.10
20848;BMP180;10584;50.854;12.902;2022-07-29T16:37:50;97990.00;;;21.00
20848;BMP180;10584;50.854;12.902;2022-07-29T16:42:53;98001.00;;;21.10
20848;BMP180;10584;50.854;12.902;2022-07-29T16:47:56;98026.00;;;21.00
20848;BMP180;10584;50.854;12.902;2022-07-29T16:53:02;98030.00;;;20.70
20848;BMP180;10584;50.854;12.902;2022-07-29T16:58:05;98024.00;;;20.90
20848;BMP180;10584;50.854;12.902;2022-07-29T17:03:08;98002.00;;;20.80
20848;BMP180;10584;50.854;12.902;2022-07-29T17:08:11;98006.00;;;20.60
20848;BMP180;10584;50.854;12.902;2022-07-29T17:13:15;98005.00;;;20.90
20848;BMP180;10584;50.854;12.902;2022-07-29T17:18:18;98004.00;;;20.70
20848;BMP180;10584;50.854;12.902;2022-07-29T17:23:21;98003.00;;;20.80
